Time;durP1;ratioP1;P1;durP2;ratioP2;P2;SDS_P1;SDS_P2;PMS_P1;PMS_P2;Temp;Humidity;BMP_temperature;BMP_pressure;BME280_temperature;BME280_humidity;BME280_pressure;Samples;Min_cycle;Max_cycle;Signal;HPM_P1;HPM_P2
2022/09/19 00:01:24;;;;;;;1.50;1.10;;;10.40;98.20;;;;;;4938787;28;20490;-78
2022/09/19 00:03:54;;;;;;;1.50;1.10;;;10.40;98.20;;;;;;4949040;29;20570;-78
2022/09/19 00:06:22;;;;;;;1.57;1.10;;;10.40;98.20;;;;;;4938944;28;20487;-77
2022/09/19 00:08:49;;;;;;;1.60;1.20;;;10.40;98.20;;;;;;4949046;29;20541;-79
2022/09/19 00:11:19;;;;;;;1.50;1.10;;;10.40;98.20;;;;;;4938961;28;21003;-78
2022/09/19 00:13:47;;;;;;;1.50;1.10;;;10.40;98.20;;;;;;4948908;29;20861;-78
2022/09/19 00:16:19;;;;;;;1.60;1.20;;;10.50;98.20;;;;;;4936189;28;20483;-78
2022/09/19 00:18:46;;;;;;;1.60;1.20;;;10.50;98.20;;;;;;4947240;28;20557;-78
2022/09/19 00:21:20;;;;;;;1.57;1.10;;;10.50;98.20;;;;;;4937726;28;20557;-78
2022/09/19 00:26:32;;;;;;;1.57;1.03;;;10.50;98.20;;;;;;4943852;28;21044;-78
2022/09/19 00:28:59;;;;;;;1.57;1.20;;;10.50;98.20;;;;;;4948576;29;20988;-78
2022/09/19 00:31:27;;;;;;;1.53;1.10;;;10.50;98.20;;;;;;4929251;28;20570;-78
2022/09/19 00:33:55;;;;;;;1.57;1.10;;;10.40;98.20;;;;;;4946395;29;20490;-77
2022/09/19 00:36:22;;;;;;;1.57;1.10;;;10.40;98.20;;;;;;4932338;28;21035;-78
2022/09/19 00:38:49;;;;;;;1.60;1.20;;;10.40;98.20;;;;;;4942616;29;20463;-78
2022/09/19 00:41:18;;;;;;;1.53;1.10;;;10.40;98.20;;;;;;4944525;28;20487;-78
2022/09/19 00:43:51;;;;;;;1.60;1.20;;;10.40;98.20;;;;;;4945976;29;20477;-78
2022/09/19 00:46:20;;;;;;;1.57;1.20;;;10.50;98.20;;;;;;4939186;28;20479;-78
2022/09/19 00:48:52;;;;;;;1.57;1.20;;;10.50;98.20;;;;;;4952974;28;20960;-79
2022/09/19 00:51:31;;;;;;;1.57;1.20;;;10.50;98.20;;;;;;4940182;28;20486;-79
2022/09/19 00:54:00;;;;;;;1.60;1.20;;;10.40;98.20;;;;;;4945841;29;20470;-79
2022/09/19 00:56:28;;;;;;;1.60;1.20;;;10.40;98.20;;;;;;4940531;28;20926;-78
2022/09/19 00:58:57;;;;;;;1.60;1.20;;;10.40;98.20;;;;;;4950077;29;20466;-79
2022/09/19 01:01:24;;;;;;;1.57;1.10;;;10.40;98.20;;;;;;4941751;28;20494;-78
2022/09/19 01:03:53;;;;;;;1.60;1.20;;;10.40;98.20;;;;;;4958204;28;20558;-79
2022/09/19 01:06:40;;;;;;;1.57;1.10;;;10.40;98.20;;;;;;4941339;28;20490;-78
2022/09/19 01:09:26;;;;;;;1.57;1.10;;;10.50;98.20;;;;;;4949557;29;20561;-79
2022/09/19 01:12:13;;;;;;;1.57;1.10;;;10.50;98.20;;;;;;4927641;28;22423;-78
2022/09/19 01:15:00;;;;;;;1.60;1.17;;;10.50;98.20;;;;;;4960756;28;20458;-78
2022/09/19 01:17:33;;;;;;;1.60;1.20;;;10.50;98.20;;;;;;4939535;28;20482;-78
2022/09/19 01:20:33;;;;;;;1.60;1.10;;;10.50;98.20;;;;;;4953868;28;20497;-79
2022/09/19 01:23:21;;;;;;;1.60;1.20;;;10.50;98.20;;;;;;4939944;28;20490;-79
2022/09/19 01:25:58;;;;;;;1.57;1.20;;;10.50;98.20;;;;;;4947089;28;20522;-78
2022/09/19 01:28:31;;;;;;;1.60;1.20;;;10.50;98.20;;;;;;4947511;28;20466;-78
2022/09/19 01:31:21;;;;;;;1.50;1.10;;;10.50;98.20;;;;;;4942363;28;20490;-78
2022/09/19 01:33:57;;;;;;;1.57;1.20;;;10.50;98.20;;;;;;4951800;29;20470;-79
2022/09/19 01:36:32;;;;;;;1.60;1.20;;;10.40;98.20;;;;;;4937399;28;20545;-78
2022/09/19 01:39:01;;;;;;;1.60;1.10;;;10.40;98.20;;;;;;4946445;29;20494;-78
2022/09/19 01:41:28;;;;;;;1.57;1.10;;;10.40;98.20;;;;;;4936519;28;20475;-78
2022/09/19 01:44:02;;;;;;;1.53;1.13;;;10.30;98.20;;;;;;4950986;28;20477;-78
2022/09/19 01:46:40;;;;;;;1.60;1.20;;;10.30;98.20;;;;;;4938513;28;20910;-78
2022/09/19 01:49:17;;;;;;;1.60;1.20;;;10.30;98.20;;;;;;4953897;28;20478;-80
2022/09/19 01:51:49;;;;;;;1.53;1.20;;;10.30;98.20;;;;;;4938515;28;20491;-78
2022/09/19 01:54:30;;;;;;;1.57;1.10;;;10.20;98.20;;;;;;4946162;29;20910;-78
2022/09/19 01:57:06;;;;;;;1.57;1.20;;;10.20;98.20;;;;;;4942848;28;20525;-78
2022/09/19 01:59:47;;;;;;;1.53;1.20;;;10.20;98.20;;;;;;4946658;29;20482;-78
2022/09/19 02:02:28;;;;;;;1.60;1.20;;;10.20;98.20;;;;;;4940353;28;20569;-78
2022/09/19 02:05:01;;;;;;;1.53;1.10;;;10.10;98.20;;;;;;4948839;29;20459;-78
2022/09/19 02:07:39;;;;;;;1.60;1.20;;;10.10;98.20;;;;;;4942116;28;20569;-78
2022/09/19 02:10:10;;;;;;;1.53;1.20;;;10.10;98.20;;;;;;4952130;29;20545;-78
2022/09/19 02:12:39;;;;;;;1.60;1.20;;;10.10;98.20;;;;;;4940242;28;20483;-78
2022/09/19 02:15:11;;;;;;;1.57;1.20;;;10.10;98.20;;;;;;4951859;29;20492;-78
2022/09/19 02:17:44;;;;;;;1.60;1.20;;;10.10;98.20;;;;;;4946737;28;20498;-78
2022/09/19 02:20:16;;;;;;;1.57;1.20;;;10.10;98.20;;;;;;4952375;28;20565;-78
2022/09/19 02:22:48;;;;;;;1.60;1.20;;;10.10;98.20;;;;;;4936158;28;21066;-77
2022/09/19 02:25:21;;;;;;;1.53;1.10;;;10.10;98.20;;;;;;4950442;29;20485;-77
2022/09/19 02:27:52;;;;;;;1.57;1.10;;;10.10;98.20;;;;;;4935115;28;20514;-77
2022/09/19 02:30:21;;;;;;;1.60;1.20;;;10.20;98.20;;;;;;4951752;29;20491;-77
2022/09/19 02:32:49;;;;;;;1.60;1.10;;;10.20;98.20;;;;;;4945092;28;20491;-77
2022/09/19 02:35:20;;;;;;;1.57;1.10;;;10.20;98.20;;;;;;4950900;29;20490;-77
2022/09/19 02:37:54;;;;;;;1.57;1.10;;;10.10;98.20;;;;;;4938512;28;20522;-78
2022/09/19 02:40:26;;;;;;;1.57;1.20;;;10.20;98.20;;;;;;4950190;29;20873;-77
2022/09/19 02:42:57;;;;;;;1.50;1.20;;;10.10;98.20;;;;;;4936905;28;20486;-76
2022/09/19 02:45:32;;;;;;;1.60;1.10;;;10.10;98.20;;;;;;4951148;29;20470;-77
2022/09/19 02:48:04;;;;;;;1.53;1.20;;;10.10;98.20;;;;;;4935288;28;20486;-77
2022/09/19 02:50:36;;;;;;;1.60;1.20;;;10.10;98.20;;;;;;4950416;28;20483;-77
2022/09/19 02:53:07;;;;;;;1.53;1.20;;;10.10;98.20;;;;;;4929148;28;20578;-77
2022/09/19 02:55:41;;;;;;;1.50;1.20;;;10.10;98.20;;;;;;4950444;28;20783;-77
2022/09/19 02:58:11;;;;;;;1.60;1.10;;;10.10;98.20;;;;;;4940453;28;20541;-77
2022/09/19 03:00:40;;;;;;;1.53;1.20;;;10.00;98.20;;;;;;4949025;29;21449;-77
2022/09/19 03:05:56;;;;;;;1.60;1.20;;;10.00;98.20;;;;;;4940127;28;20493;-78
2022/09/19 03:08:25;;;;;;;1.53;1.10;;;10.00;98.20;;;;;;4949565;29;20483;-76
2022/09/19 03:10:56;;;;;;;1.60;1.20;;;10.00;98.20;;;;;;4941140;28;20562;-77
2022/09/19 03:13:24;;;;;;;1.60;1.20;;;10.00;98.20;;;;;;4949551;28;20545;-76
2022/09/19 03:15:57;;;;;;;1.60;1.20;;;10.00;98.20;;;;;;4939965;28;20463;-77
2022/09/19 03:18:26;;;;;;;1.60;1.20;;;10.00;98.20;;;;;;4944044;29;20837;-77
2022/09/19 03:20:56;;;;;;;1.50;1.20;;;10.00;98.20;;;;;;4940238;28;21688;-77
2022/09/19 03:23:30;;;;;;;1.53;1.20;;;10.00;98.20;;;;;;4941677;29;20478;-77
2022/09/19 03:25:56;;;;;;;1.60;1.20;;;9.90;98.20;;;;;;4939880;28;20544;-77
2022/09/19 03:28:23;;;;;;;1.77;1.53;;;9.90;98.20;;;;;;4944916;29;20562;-77
2022/09/19 03:30:56;;;;;;;1.60;1.20;;;9.90;98.20;;;;;;4940947;28;20501;-76
2022/09/19 03:33:24;;;;;;;1.60;1.20;;;9.90;98.20;;;;;;4950030;29;20581;-77
2022/09/19 03:35:52;;;;;;;1.60;1.20;;;9.90;98.20;;;;;;4940605;28;20569;-78
2022/09/19 03:38:19;;;;;;;1.60;1.20;;;9.90;98.20;;;;;;4949187;29;20783;-77
2022/09/19 03:40:46;;;;;;;1.57;1.13;;;9.90;98.20;;;;;;4950738;29;20502;-77
2022/09/19 03:43:13;;;;;;;1.60;1.20;;;9.90;98.20;;;;;;4928227;29;20479;-78
2022/09/19 03:45:40;;;;;;;1.60;1.20;;;9.90;98.20;;;;;;4950493;29;20470;-77
2022/09/19 03:48:09;;;;;;;1.60;1.20;;;9.90;98.20;;;;;;4940511;28;20522;-79
2022/09/19 03:50:37;;;;;;;1.57;1.10;;;9.90;98.20;;;;;;4952279;28;20479;-77
2022/09/19 03:53:06;;;;;;;1.60;1.20;;;10.00;98.20;;;;;;4930235;28;20480;-77
2022/09/19 03:55:36;;;;;;;1.60;1.20;;;10.00;98.20;;;;;;4950626;29;20866;-77
2022/09/19 03:58:02;;;;;;;1.60;1.20;;;10.00;98.20;;;;;;4937392;28;20534;-78
2022/09/19 04:00:30;;;;;;;1.60;1.20;;;10.00;98.20;;;;;;4950472;29;20495;-78
2022/09/19 04:02:57;;;;;;;1.60;1.20;;;10.10;98.20;;;;;;4940362;28;20681;-77
2022/09/19 04:05:25;;;;;;;1.60;1.13;;;10.10;98.20;;;;;;4949711;29;20474;-79
2022/09/19 04:07:52;;;;;;;1.50;1.20;;;10.10;98.20;;;;;;4936638;28;20510;-78
2022/09/19 04:10:19;;;;;;;1.60;1.27;;;10.20;98.20;;;;;;4949077;29;21027;-77
2022/09/19 04:12:48;;;;;;;1.57;1.10;;;10.20;98.20;;;;;;4937968;28;20931;-77
2022/09/19 04:15:16;;;;;;;1.60;1.10;;;10.20;98.20;;;;;;4946955;29;21023;-77
2022/09/19 04:17:43;;;;;;;1.60;1.20;;;10.20;98.20;;;;;;4939003;28;20590;-77
2022/09/19 04:20:10;;;;;;;1.53;1.10;;;10.20;98.20;;;;;;4947497;28;20497;-77
2022/09/19 04:22:38;;;;;;;1.60;1.20;;;10.20;98.20;;;;;;4935600;28;20497;-77
2022/09/19 04:25:09;;;;;;;1.60;1.20;;;10.20;98.20;;;;;;4947277;29;20831;-79
2022/09/19 04:27:37;;;;;;;1.60;1.20;;;10.20;98.20;;;;;;4939439;28;20867;-77
2022/09/19 04:30:05;;;;;;;1.60;1.20;;;10.20;98.20;;;;;;4948394;29;20587;-77
2022/09/19 04:32:32;;;;;;;1.60;1.20;;;10.20;98.20;;;;;;4936703;28;20498;-77
2022/09/19 04:35:00;;;;;;;1.50;1.10;;;10.20;98.20;;;;;;4948869;29;20844;-77
2022/09/19 04:37:29;;;;;;;1.60;1.23;;;10.20;98.20;;;;;;4935671;28;20478;-77
2022/09/19 04:39:57;;;;;;;1.53;1.10;;;10.30;98.20;;;;;;4948902;29;20493;-78
2022/09/19 04:42:24;;;;;;;1.60;1.10;;;10.30;98.20;;;;;;4937590;28;20643;-78
2022/09/19 04:44:53;;;;;;;1.57;1.17;;;10.30;98.20;;;;;;4946934;29;20494;-77
2022/09/19 04:47:20;;;;;;;1.53;1.10;;;10.30;98.20;;;;;;4939375;28;20893;-77
2022/09/19 04:49:48;;;;;;;1.53;1.20;;;10.30;98.20;;;;;;4949619;28;20860;-78
2022/09/19 04:52:14;;;;;;;1.50;1.10;;;10.20;98.20;;;;;;4928855;28;20515;-77
2022/09/19 04:54:42;;;;;;;1.57;1.10;;;10.20;98.20;;;;;;4944804;29;20517;-77
2022/09/19 04:57:11;;;;;;;1.57;1.10;;;10.20;98.20;;;;;;4936700;28;20482;-77
2022/09/19 04:59:38;;;;;;;1.53;1.10;;;10.20;98.20;;;;;;4949833;29;20987;-77
2022/09/19 05:02:08;;;;;;;1.57;1.20;;;10.20;98.20;;;;;;4938657;28;20545;-77
2022/09/19 05:04:38;;;;;;;1.50;1.20;;;10.20;98.20;;;;;;4949117;29;20477;-77
2022/09/19 08:11:50;;;;;;;1.53;0.97;;;13.50;98.20;;;;;;4902977;29;20436;-89
2022/09/19 08:14:19;;;;;;;1.50;1.00;;;13.50;98.20;;;;;;4902339;29;20995;-90
2022/09/19 08:16:53;;;;;;;1.53;1.10;;;13.50;98.20;;;;;;4898354;29;20484;-90
2022/09/19 08:19:20;;;;;;;1.53;1.00;;;13.50;98.20;;;;;;4904992;29;20492;-90
2022/09/19 08:21:48;;;;;;;1.53;1.00;;;13.60;98.20;;;;;;4896668;29;20516;-90
2022/09/19 08:24:16;;;;;;;1.57;1.00;;;13.50;98.20;;;;;;4911703;29;20469;-91
2022/09/19 08:26:43;;;;;;;1.60;1.00;;;13.60;98.20;;;;;;4904268;29;20492;-89
2022/09/19 08:29:12;;;;;;;1.53;1.00;;;13.70;98.20;;;;;;4914865;29;20576;-90
2022/09/19 08:31:40;;;;;;;2.83;2.60;;;13.80;98.20;;;;;;4911403;29;20488;-92
2022/09/19 08:34:08;;;;;;;1.60;1.00;;;13.80;98.20;;;;;;4914353;29;20476;-91
2022/09/19 08:36:36;;;;;;;1.57;1.00;;;13.90;98.20;;;;;;4890507;29;20530;-91
2022/09/19 08:39:09;;;;;;;1.53;0.90;;;14.00;98.20;;;;;;4908648;29;20497;-90
2022/09/19 08:42:00;;;;;;;1.53;1.00;;;14.10;98.20;;;;;;4902904;29;20500;-90
2022/09/19 08:44:41;;;;;;;1.60;1.10;;;14.20;98.20;;;;;;4908572;29;20505;-89
2022/09/19 08:47:13;;;;;;;1.60;1.10;;;14.40;98.20;;;;;;4899799;29;21053;-90
2022/09/19 08:49:44;;;;;;;1.60;1.00;;;14.40;98.20;;;;;;4902539;29;20457;-90
2022/09/19 08:52:29;;;;;;;1.60;1.00;;;14.50;98.20;;;;;;4895367;29;20484;-89
2022/09/19 08:54:58;;;;;;;1.57;1.00;;;14.60;98.20;;;;;;4902826;29;20499;-89
2022/09/19 08:57:29;;;;;;;1.50;0.90;;;14.70;98.20;;;;;;4904366;29;20484;-88
2022/09/19 09:00:02;;;;;;;1.57;1.00;;;14.80;98.20;;;;;;4903105;29;20470;-88
2022/09/19 09:02:40;;;;;;;1.60;1.00;;;14.90;98.20;;;;;;4907265;29;20573;-89
2022/09/19 09:05:14;;;;;;;1.60;1.00;;;15.00;98.20;;;;;;4904152;29;20477;-89
2022/09/19 09:07:52;;;;;;;1.60;1.00;;;15.00;98.20;;;;;;4908987;29;20492;-87
2022/09/19 09:10:31;;;;;;;1.53;0.97;;;15.10;98.20;;;;;;4904075;29;20465;-90
2022/09/19 09:13:10;;;;;;;1.57;1.00;;;15.20;98.20;;;;;;4907649;29;21255;-88
2022/09/19 09:15:58;;;;;;;1.60;1.00;;;15.40;98.20;;;;;;4901632;29;20453;-89
2022/09/19 09:18:35;;;;;;;1.53;0.90;;;15.50;98.20;;;;;;4890477;29;20489;-88
2022/09/19 09:21:10;;;;;;;1.60;1.00;;;15.50;98.20;;;;;;4892956;29;20817;-88
2022/09/19 09:23:40;;;;;;;1.57;0.97;;;15.50;98.20;;;;;;4912458;29;20464;-88
2022/09/19 09:26:14;;;;;;;1.53;1.00;;;15.50;98.20;;;;;;4893636;29;20492;-89
2022/09/19 09:28:46;;;;;;;1.60;1.10;;;15.60;98.20;;;;;;4910853;29;20494;-88
2022/09/19 09:31:25;;;;;;;1.57;1.00;;;15.60;98.20;;;;;;4892601;29;20659;-89
2022/09/19 09:33:57;;;;;;;1.57;1.00;;;15.70;98.20;;;;;;4908996;29;20473;-88
2022/09/19 09:36:31;;;;;;;1.57;1.00;;;15.80;98.20;;;;;;4891498;29;20496;-88
2022/09/19 09:39:02;;;;;;;1.53;0.90;;;15.90;98.20;;;;;;4906304;29;20500;-87
2022/09/19 09:44:43;;;;;;;2.13;1.93;;;16.10;98.20;;;;;;4903029;29;20477;-87
2022/09/19 09:47:24;;;;;;;1.53;1.00;;;16.20;98.20;;;;;;4897094;29;20492;-88
2022/09/19 09:49:53;;;;;;;1.60;1.10;;;16.20;98.20;;;;;;4900294;29;20482;-88
2022/09/19 09:52:35;;;;;;;1.60;1.00;;;16.30;98.20;;;;;;4897220;29;20488;-88
2022/09/19 09:58:19;;;;;;;1.60;1.00;;;16.50;98.20;;;;;;4903324;29;20492;-89
2022/09/19 10:03:49;;;;;;;1.53;1.00;;;16.80;98.20;;;;;;4885872;29;20562;-89
2022/09/19 10:06:23;;;;;;;1.57;0.90;;;16.90;98.20;;;;;;4890211;29;20559;-89
2022/09/19 10:09:00;;;;;;;1.60;1.10;;;16.90;98.20;;;;;;4911074;29;20493;-91
2022/09/19 10:11:37;;;;;;;1.50;0.90;;;16.90;98.20;;;;;;4897559;29;20484;-90
2022/09/19 10:14:08;;;;;;;1.50;1.00;;;17.00;98.20;;;;;;4906491;29;20473;-90
2022/09/19 10:16:36;;;;;;;1.53;1.00;;;17.00;98.20;;;;;;4901980;29;20531;-90
2022/09/19 10:19:13;;;;;;;1.57;0.97;;;17.30;98.20;;;;;;4920036;29;20554;-90
2022/09/19 10:21:41;;;;;;;1.57;0.93;;;17.80;98.20;;;;;;4867463;29;20486;-88
2022/09/19 10:24:50;;;;;;;1.57;0.90;;;18.10;98.20;;;;;;4881982;29;20509;-90
2022/09/19 10:27:22;;;;;;;1.60;0.97;;;18.40;98.20;;;;;;4723308;29;20556;-89
2022/09/19 10:29:56;;;;;;;1.57;1.00;;;18.70;98.20;;;;;;4538728;30;20566;-90
2022/09/19 10:36:21;;;;;;;1.53;1.00;;;18.70;98.20;;;;;;5129536;27;20560;-77
2022/09/19 10:38:58;;;;;;;1.57;0.90;;;18.40;98.20;;;;;;5070318;28;20477;-76
2022/09/19 10:41:27;;;;;;;3.10;2.80;;;18.40;98.20;;;;;;4943215;28;1815679;-77
2022/09/19 10:43:57;;;;;;;1.57;0.90;;;18.60;98.20;;;;;;5001431;28;20330;-77
2022/09/19 10:46:31;;;;;;;1.53;0.90;;;19.00;98.20;;;;;;5008532;28;20741;-75
2022/09/19 10:48:59;;;;;;;1.53;0.90;;;19.40;96.90;;;;;;5014873;28;20475;-76
2022/09/19 10:51:34;;;;;;;1.50;0.90;;;19.60;96.00;;;;;;5004683;28;20483;-77
2022/09/19 10:54:09;;;;;;;1.53;0.90;;;20.00;95.50;;;;;;5015846;28;20469;-75
2022/09/19 10:56:37;;;;;;;1.50;0.90;;;20.20;95.20;;;;;;5016082;28;20898;-76
2022/09/19 10:59:08;;;;;;;1.50;0.97;;;20.30;94.10;;;;;;5046627;28;20532;-75
2022/09/19 11:01:35;;;;;;;1.53;0.90;;;20.20;93.40;;;;;;5027806;28;20965;-76
2022/09/19 11:04:05;;;;;;;1.50;0.90;;;19.90;94.60;;;;;;5019989;28;20473;-75
2022/09/19 11:06:34;;;;;;;1.50;0.90;;;19.50;95.80;;;;;;5008540;28;20491;-76
2022/09/19 11:09:07;;;;;;;1.50;0.90;;;19.10;96.20;;;;;;5027257;28;20488;-74
2022/09/19 11:11:45;;;;;;;1.50;0.90;;;19.00;97.60;;;;;;5013448;28;20483;-76
2022/09/19 11:14:19;;;;;;;1.50;0.90;;;18.80;97.60;;;;;;5022746;28;20533;-74
2022/09/19 11:17:12;;;;;;;1.53;0.90;;;18.70;97.90;;;;;;5013137;28;20473;-76
2022/09/19 11:19:56;;;;;;;1.53;0.90;;;18.50;98.10;;;;;;5017758;28;20915;-76
2022/09/19 11:22:36;;;;;;;1.50;0.90;;;18.30;98.20;;;;;;5010368;28;20478;-75
2022/09/19 11:25:16;;;;;;;1.53;0.90;;;18.10;98.20;;;;;;5013616;28;20459;-76
2022/09/19 11:27:58;;;;;;;1.50;0.90;;;18.00;98.20;;;;;;4998323;28;20483;-75
2022/09/19 11:30:27;;;;;;;1.50;0.97;;;18.20;98.20;;;;;;5011222;28;20526;-75
2022/09/19 11:33:38;;;;;;;1.50;0.90;;;18.60;98.20;;;;;;5024421;28;21377;-77
2022/09/19 11:36:10;;;;;;;1.53;0.90;;;19.00;98.20;;;;;;5004961;28;20488;-77
2022/09/19 11:38:52;;;;;;;1.53;0.90;;;19.40;98.20;;;;;;5012230;28;20488;-76
2022/09/19 11:41:33;;;;;;;1.50;0.90;;;19.70;97.80;;;;;;5013012;28;20482;-76
2022/09/19 11:44:23;;;;;;;1.50;0.90;;;19.90;96.30;;;;;;5015996;28;21009;-75
2022/09/19 11:47:00;;;;;;;1.50;0.90;;;20.20;96.80;;;;;;4992496;28;21301;-74
2022/09/19 11:49:56;;;;;;;1.50;0.90;;;20.60;96.40;;;;;;5007385;28;20538;-75
2022/09/19 11:52:35;;;;;;;1.50;0.90;;;20.70;95.10;;;;;;5000175;28;20480;-76
2022/09/19 11:55:17;;;;;;;1.53;0.90;;;20.70;92.50;;;;;;5006135;28;20493;-76
2022/09/19 11:57:54;;;;;;;1.53;0.90;;;20.70;94.50;;;;;;4991607;28;20473;-77
2022/09/19 12:00:25;;;;;;;1.50;0.90;;;20.70;92.90;;;;;;5000103;28;20979;-77
2022/09/19 12:03:16;;;;;;;1.53;0.90;;;20.60;90.80;;;;;;5003790;28;20476;-77
2022/09/19 12:06:03;;;;;;;1.53;0.90;;;20.60;89.10;;;;;;4999957;28;20472;-75
2022/09/19 12:08:43;;;;;;;1.50;0.90;;;20.80;86.00;;;;;;4985814;28;20500;-75
2022/09/19 12:11:18;;;;;;;1.53;0.90;;;21.00;90.20;;;;;;4993058;28;20886;-76
2022/09/19 12:13:49;;;;;;;1.53;0.90;;;21.20;86.00;;;;;;5007517;28;20894;-75
2022/09/19 12:16:24;;;;;;;1.50;0.90;;;21.30;85.30;;;;;;4993860;28;20511;-75
2022/09/19 12:18:56;;;;;;;1.50;0.90;;;21.00;83.90;;;;;;5007425;28;20924;-76
2022/09/19 12:21:28;;;;;;;1.50;0.90;;;20.20;85.30;;;;;;4993982;28;20487;-76
2022/09/19 12:26:54;;;;;;;1.50;0.90;;;18.40;95.30;;;;;;4997531;28;20502;-75
2022/09/19 12:29:28;;;;;;;1.50;0.90;;;17.50;98.20;;;;;;5006215;28;20486;-74
2022/09/19 12:32:06;;;;;;;1.50;0.90;;;16.90;98.20;;;;;;4997444;28;21474;-75
2022/09/19 12:34:40;;;;;;;1.50;0.90;;;16.30;98.20;;;;;;5003730;28;20468;-77
2022/09/19 12:37:15;;;;;;;1.50;1.00;;;16.00;98.20;;;;;;4999802;28;21011;-76
2022/09/19 12:39:48;;;;;;;1.50;0.90;;;15.70;98.20;;;;;;5002970;28;20488;-75
2022/09/19 12:42:31;;;;;;;1.53;1.00;;;15.30;98.20;;;;;;5000148;28;20507;-77
2022/09/19 12:45:07;;;;;;;1.50;0.90;;;15.10;98.20;;;;;;5041117;28;20765;-76
2022/09/19 12:47:54;;;;;;;1.50;1.00;;;15.00;98.20;;;;;;5029896;28;20486;-75
2022/09/19 12:50:32;;;;;;;1.50;1.00;;;15.00;98.20;;;;;;5039534;28;20494;-75
2022/09/19 12:53:17;;;;;;;1.50;1.00;;;14.90;98.20;;;;;;5027689;28;20505;-74
2022/09/19 12:55:59;;;;;;;1.50;1.00;;;14.90;98.20;;;;;;5038532;28;20493;-75
2022/09/19 12:58:32;;;;;;;1.50;0.90;;;14.90;98.20;;;;;;5007848;28;20564;-75
2022/09/19 13:01:14;;;;;;;1.50;0.90;;;15.00;98.20;;;;;;5031882;28;20459;-73
2022/09/19 13:03:48;;;;;;;1.53;0.93;;;15.00;98.20;;;;;;5038823;28;20714;-74
2022/09/19 13:06:20;;;;;;;1.60;1.00;;;15.00;98.20;;;;;;5032672;28;20485;-74
2022/09/19 13:08:53;;;;;;;1.50;1.00;;;15.00;98.20;;;;;;5042417;28;20491;-74
2022/09/19 13:11:26;;;;;;;1.50;0.90;;;15.00;98.20;;;;;;5028951;28;21029;-74
2022/09/19 13:14:00;;;;;;;1.57;1.00;;;15.00;98.20;;;;;;5038506;28;21128;-75
2022/09/19 13:16:30;;;;;;;1.60;1.00;;;15.00;98.20;;;;;;5028540;28;21197;-73
2022/09/19 13:24:56;;;;;;;1.57;0.90;;;15.10;98.20;;;;;;5036765;28;20585;-75
2022/09/19 13:27:25;;;;;;;1.57;0.90;;;15.20;98.20;;;;;;5030539;28;20592;-74
2022/09/19 13:29:57;;;;;;;1.53;0.93;;;15.30;98.20;;;;;;5034627;28;20482;-75
2022/09/19 13:32:52;;;;;;;1.50;0.90;;;15.40;98.20;;;;;;5028210;28;20580;-76
2022/09/19 13:35:22;;;;;;;1.53;1.00;;;15.60;98.20;;;;;;5035502;28;20523;-75
2022/09/19 13:37:55;;;;;;;1.53;1.00;;;15.80;98.20;;;;;;5029214;28;20486;-74
2022/09/19 13:40:48;;;;;;;1.50;1.00;;;16.00;98.20;;;;;;5037898;28;20471;-74
2022/09/19 13:43:41;;;;;;;1.57;1.00;;;16.10;98.20;;;;;;5007939;28;20526;-74
2022/09/19 13:46:16;;;;;;;1.50;0.93;;;16.20;98.20;;;;;;5027822;28;20934;-74
2022/09/19 13:48:48;;;;;;;1.50;1.00;;;16.20;98.20;;;;;;5036049;28;20494;-74
2022/09/19 13:51:29;;;;;;;1.50;0.90;;;16.20;98.20;;;;;;5029356;28;20492;-73
2022/09/19 13:54:16;;;;;;;1.50;1.00;;;16.30;98.20;;;;;;5034068;28;20841;-74
2022/09/19 13:56:44;;;;;;;1.50;1.00;;;16.30;98.20;;;;;;5014703;28;20854;-74
2022/09/19 13:59:20;;;;;;;1.50;1.00;;;16.30;98.20;;;;;;5030652;28;20936;-73
2022/09/19 14:02:00;;;;;;;1.50;1.00;;;16.40;98.20;;;;;;5025025;28;21036;-74
2022/09/19 14:04:55;;;;;;;1.73;1.50;;;16.40;98.20;;;;;;5035912;28;20473;-75
2022/09/19 14:07:30;;;;;;;1.53;1.00;;;16.50;98.20;;;;;;5028199;28;21086;-75
2022/09/19 14:10:00;;;;;;;1.50;0.90;;;16.80;98.20;;;;;;5035851;28;20519;-75
2022/09/19 14:12:53;;;;;;;1.57;1.00;;;16.90;98.20;;;;;;5026470;28;20498;-73
2022/09/19 14:16:18;;;;;;;1.50;0.97;;;17.20;98.20;;;;;;5039014;28;20486;-73
2022/09/19 14:18:50;;;;;;;1.57;0.90;;;17.60;98.20;;;;;;4970608;28;20576;-74
2022/09/19 14:21:57;;;;;;;1.50;0.90;;;18.00;98.20;;;;;;5028603;28;20510;-73
2022/09/19 14:24:48;;;;;;;1.50;0.90;;;18.20;98.20;;;;;;5034094;28;20470;-74
2022/09/19 14:27:54;;;;;;;1.50;0.90;;;18.20;98.20;;;;;;5021829;28;20554;-74
2022/09/19 14:30:34;;;;;;;1.60;1.00;;;18.10;98.20;;;;;;5010582;28;20597;-74
2022/09/19 14:33:43;;;;;;;1.50;0.90;;;17.90;98.20;;;;;;5022732;28;20521;-76
2022/09/19 14:36:27;;;;;;;1.53;1.00;;;17.60;98.20;;;;;;4946366;28;21058;-75
2022/09/19 14:39:19;;;;;;;1.50;0.90;;;17.40;98.20;;;;;;5027270;28;20487;-74
2022/09/19 14:41:56;;;;;;;1.57;1.00;;;17.20;98.20;;;;;;5027521;28;20478;-74
2022/09/19 14:44:59;;;;;;;1.50;0.97;;;17.00;98.20;;;;;;5032926;28;20528;-74
2022/09/19 14:47:30;;;;;;;1.57;1.00;;;16.90;98.20;;;;;;5021447;28;20572;-75
2022/09/19 14:50:03;;;;;;;1.53;0.93;;;16.80;98.20;;;;;;5037282;28;20466;-74
2022/09/19 14:52:33;;;;;;;1.70;1.30;;;16.70;98.20;;;;;;5025005;28;20483;-74
2022/09/19 14:55:03;;;;;;;1.50;0.90;;;16.50;98.20;;;;;;5032260;28;20459;-74
2022/09/19 14:57:32;;;;;;;1.50;0.90;;;16.50;98.20;;;;;;5024676;28;20482;-74
2022/09/19 15:00:21;;;;;;;1.50;1.00;;;16.40;98.20;;;;;;5038198;28;20472;-75
2022/09/19 15:02:48;;;;;;;1.50;1.00;;;16.30;98.20;;;;;;5016295;28;20537;-74
2022/09/19 15:05:19;;;;;;;1.60;1.20;;;16.30;98.20;;;;;;5019884;28;21004;-75
2022/09/19 15:07:48;;;;;;;1.50;1.00;;;16.30;98.20;;;;;;5006533;28;21064;-75
2022/09/19 15:10:30;;;;;;;1.53;1.00;;;16.20;98.20;;;;;;5018581;28;20463;-74
2022/09/19 15:12:58;;;;;;;1.50;1.00;;;16.20;98.20;;;;;;5004057;28;20496;-75
2022/09/19 15:15:30;;;;;;;1.50;0.90;;;16.10;98.20;;;;;;5012642;28;20969;-75
2022/09/19 15:17:58;;;;;;;1.50;0.97;;;16.10;98.20;;;;;;5001147;28;20672;-74
2022/09/19 15:20:27;;;;;;;1.50;1.00;;;16.10;98.20;;;;;;5013413;28;20526;-75
2022/09/19 15:22:58;;;;;;;1.50;0.93;;;16.10;98.20;;;;;;5005046;28;20563;-75
2022/09/19 15:25:30;;;;;;;1.53;1.00;;;16.20;98.20;;;;;;5018824;28;20645;-75
2022/09/19 15:28:00;;;;;;;1.50;1.00;;;16.20;98.20;;;;;;4998738;28;20495;-75
2022/09/19 15:30:30;;;;;;;1.50;1.00;;;16.30;98.20;;;;;;5020636;28;20468;-75
2022/09/19 15:33:00;;;;;;;1.50;0.90;;;16.30;98.20;;;;;;5008250;28;20497;-75
2022/09/19 15:35:28;;;;;;;1.50;0.93;;;16.40;98.20;;;;;;5015772;28;20507;-74
2022/09/19 15:38:01;;;;;;;1.50;0.90;;;16.40;98.20;;;;;;5002795;28;20480;-74
2022/09/19 15:40:32;;;;;;;1.60;1.10;;;16.30;98.20;;;;;;5017135;28;20843;-74
2022/09/19 15:43:00;;;;;;;1.50;1.00;;;16.30;98.20;;;;;;5007313;28;20534;-74
2022/09/19 15:45:46;;;;;;;1.50;0.93;;;16.20;98.20;;;;;;5018282;28;20470;-74
2022/09/19 15:48:25;;;;;;;1.57;1.00;;;16.30;98.20;;;;;;4992657;28;20840;-74
2022/09/19 15:50:55;;;;;;;1.50;0.97;;;16.30;98.20;;;;;;5010264;28;20730;-74
2022/09/19 15:53:30;;;;;;;1.53;0.90;;;16.30;98.20;;;;;;5019787;28;20466;-74
2022/09/19 15:56:10;;;;;;;1.50;1.00;;;16.30;98.20;;;;;;5008534;28;20491;-74
2022/09/19 15:59:05;;;;;;;1.50;1.00;;;16.30;98.20;;;;;;5014167;28;20593;-75
2022/09/19 16:01:52;;;;;;;1.50;0.93;;;16.30;98.20;;;;;;5019574;28;20475;-76
2022/09/19 16:04:30;;;;;;;1.50;0.90;;;16.30;98.20;;;;;;5021990;28;20510;-76
2022/09/19 16:10:17;;;;;;;1.50;1.00;;;16.30;98.20;;;;;;5001528;28;20475;-76
2022/09/19 16:12:47;;;;;;;1.50;0.90;;;16.40;98.20;;;;;;5007017;28;20482;-76
2022/09/19 16:15:33;;;;;;;1.50;1.00;;;16.40;98.20;;;;;;5014533;28;20603;-75
2022/09/19 16:18:21;;;;;;;1.50;0.90;;;16.40;98.20;;;;;;5007534;28;20614;-77
2022/09/19 16:20:57;;;;;;;1.50;0.90;;;16.50;98.20;;;;;;5013024;28;20459;-75
2022/09/19 16:23:30;;;;;;;1.50;0.97;;;16.40;98.20;;;;;;5008756;28;20479;-76
2022/09/19 16:26:02;;;;;;;1.50;0.90;;;16.40;98.20;;;;;;5011222;28;20462;-77
2022/09/19 16:28:36;;;;;;;1.50;0.90;;;16.40;98.20;;;;;;5013093;23;20515;-77
2022/09/19 16:31:12;;;;;;;1.50;0.90;;;16.40;98.20;;;;;;4978182;28;21012;-76
2022/09/19 16:33:42;;;;;;;1.53;1.00;;;16.40;98.20;;;;;;5010110;28;20468;-76
2022/09/19 16:36:14;;;;;;;1.50;0.90;;;16.40;98.20;;;;;;4982090;28;20487;-76
2022/09/19 16:39:19;;;;;;;1.50;1.00;;;16.30;98.20;;;;;;5008391;28;20914;-76
2022/09/19 16:42:03;;;;;;;1.50;1.00;;;16.30;98.20;;;;;;4988627;28;20479;-76
2022/09/19 16:44:39;;;;;;;1.50;0.90;;;16.20;98.20;;;;;;4995746;28;20504;-76
2022/09/19 16:47:15;;;;;;;1.60;1.10;;;16.10;98.20;;;;;;4994178;28;20486;-76
2022/09/19 16:49:44;;;;;;;1.50;0.97;;;16.00;98.20;;;;;;4993611;28;20481;-76
2022/09/19 16:52:24;;;;;;;1.50;0.90;;;16.00;98.20;;;;;;4996352;28;20868;-76
2022/09/19 16:54:51;;;;;;;1.50;1.00;;;15.90;98.20;;;;;;4990924;28;20468;-75
2022/09/19 16:57:21;;;;;;;1.50;0.97;;;15.90;98.20;;;;;;4997047;28;20577;-75
2022/09/19 16:59:50;;;;;;;1.50;1.00;;;15.80;98.20;;;;;;4991782;28;20547;-75
2022/09/19 17:02:22;;;;;;;1.50;1.00;;;15.70;98.20;;;;;;4995814;28;20483;-76